Time;durP1;ratioP1;P1;durP2;ratioP2;P2;SDS_P1;SDS_P2;PMS_P1;PMS_P2;Temp;Humidity;BMP_temperature;BMP_pressure;BME280_temperature;BME280_humidity;BME280_pressure;Samples;Min_cycle;Max_cycle;Signal;HPM_P1;HPM_P2
2023/04/14 00:04:32;;;;;;;1.65;0.90;;;;;;;20.08;40.70;100516.56;20662176;28;20065;-66
2023/04/14 00:14:37;;;;;;;1.60;0.88;;;;;;;20.05;40.47;100519.59;20661478;28;20046;-66
2023/04/14 00:24:44;;;;;;;1.05;0.77;;;;;;;20.03;40.35;100516.19;20660849;28;20178;-66
2023/04/14 00:34:46;;;;;;;1.33;0.90;;;;;;;20.03;40.18;100515.34;20659695;28;20046;-66
2023/04/14 00:44:47;;;;;;;1.95;0.80;;;;;;;20.00;40.18;100521.91;20658855;28;20061;-66
2023/04/14 00:54:49;;;;;;;3.13;1.05;;;;;;;20.00;40.12;100530.03;20656985;28;20051;-66
2023/04/14 01:04:51;;;;;;;2.22;0.80;;;;;;;19.96;39.94;100552.97;20657588;28;20059;-66
2023/04/14 01:15:11;;;;;;;2.10;0.93;;;;;;;19.94;40.10;100572.03;20655436;28;20050;-66
2023/04/14 01:25:37;;;;;;;2.50;1.05;;;;;;;19.93;39.73;100585.72;20655248;28;20112;-66
2023/04/14 01:35:44;;;;;;;1.38;0.93;;;;;;;19.92;39.74;100589.41;20654694;28;20109;-66
2023/04/14 01:45:50;;;;;;;2.55;1.05;;;;;;;19.89;39.67;100584.28;20653858;28;20101;-66
2023/04/14 01:55:53;;;;;;;1.77;0.93;;;;;;;19.90;39.76;100586.00;20637839;28;20056;-66
2023/04/14 02:05:55;;;;;;;1.92;0.80;;;;;;;19.90;39.79;100592.25;20652886;28;20050;-66
2023/04/14 02:16:00;;;;;;;2.17;0.70;;;;;;;19.91;39.60;100596.66;20667682;28;20742;-66
2023/04/14 02:26:13;;;;;;;1.45;0.70;;;;;;;19.91;39.78;100601.22;20653362;28;20092;-66
2023/04/14 02:36:31;;;;;;;1.15;0.70;;;;;;;19.84;39.80;100596.41;20635900;28;20046;-66
2023/04/14 02:46:38;;;;;;;1.92;0.70;;;;;;;19.90;40.04;100610.31;20656315;28;20058;-66
2023/04/14 02:56:40;;;;;;;2.05;0.80;;;;;;;19.92;40.75;100621.84;20632234;28;20042;-66
2023/04/14 03:06:43;;;;;;;2.72;0.90;;;;;;;19.99;41.01;100612.09;20654109;28;20046;-66
2023/04/14 03:16:45;;;;;;;0.98;0.68;;;;;;;20.03;41.55;100618.00;20629978;28;20058;-66
2023/04/14 03:26:56;;;;;;;0.73;0.60;;;;;;;20.02;41.49;100627.13;20638487;28;20145;-66
2023/04/14 03:36:58;;;;;;;0.93;0.45;;;;;;;20.00;41.92;100622.72;20664011;28;20565;-66
2023/04/14 03:47:06;;;;;;;0.93;0.55;;;;;;;19.97;41.52;100624.91;20647806;28;20058;-66
2023/04/14 03:57:10;;;;;;;0.68;0.50;;;;;;;19.94;41.66;100625.22;20647057;28;20065;-66
2023/04/14 04:07:12;;;;;;;1.77;0.60;;;;;;;19.92;41.86;100619.97;20661568;28;20042;-66
2023/04/14 04:17:17;;;;;;;0.93;0.77;;;;;;;19.83;41.60;100615.47;20628959;28;20050;-66
2023/04/14 04:27:20;;;;;;;1.02;0.60;;;;;;;19.90;41.67;100632.78;20643563;28;20050;-66
2023/04/14 04:37:41;;;;;;;1.60;0.80;;;;;;;19.90;41.59;100656.22;20658568;28;20141;-66
2023/04/14 04:47:44;;;;;;;0.73;0.50;;;;;;;19.89;41.49;100659.94;20642455;28;20146;-66
2023/04/14 04:57:46;;;;;;;0.77;0.60;;;;;;;19.86;41.64;100656.50;20656173;28;20051;-67
2023/04/14 05:07:48;;;;;;;2.00;0.70;;;;;;;19.85;41.46;100657.53;20658168;28;20078;-67
2023/04/14 05:17:54;;;;;;;1.17;0.70;;;;;;;19.87;41.69;100665.47;20657515;28;20046;-67
2023/04/14 05:27:58;;;;;;;1.53;0.80;;;;;;;19.88;41.39;100674.41;20657137;28;20108;-67
2023/04/14 05:38:00;;;;;;;4.55;1.55;;;;;;;19.88;42.87;100663.63;20656356;28;20161;-66
2023/04/14 05:48:01;;;;;;;3.03;1.30;;;;;;;19.92;44.27;100681.28;20654867;28;20042;-66
2023/04/14 05:58:06;;;;;;;1.93;1.00;;;;;;;19.94;44.46;100673.84;20653799;28;20080;-66
2023/04/14 06:08:08;;;;;;;2.38;1.13;;;;;;;20.01;44.29;100674.94;20628020;28;20544;-66
2023/04/14 06:18:10;;;;;;;1.90;0.90;;;;;;;20.07;44.75;100679.72;20639376;28;20047;-67
2023/04/14 06:28:11;;;;;;;1.92;0.88;;;;;;;20.14;45.98;100669.97;20643715;28;20108;-68
2023/04/14 06:38:13;;;;;;;3.30;0.80;;;;;;;20.23;47.24;100667.31;20629035;28;20073;-68
2023/04/14 06:48:18;;;;;;;11.27;1.13;;;;;;;20.26;47.10;100665.16;20629087;28;20172;-68
2023/04/14 06:58:19;;;;;;;1.08;0.80;;;;;;;20.32;47.11;100669.06;20650375;28;20050;-67
2023/04/14 07:08:30;;;;;;;4.28;1.20;;;;;;;20.44;46.41;100666.94;20652661;28;20572;-67
2023/04/14 07:18:32;;;;;;;1.85;0.90;;;;;;;20.58;46.00;100670.94;20661457;28;20142;-68
2023/04/14 07:28:36;;;;;;;2.70;1.05;;;;;;;20.77;45.32;100671.69;20662814;28;20423;-68
2023/04/14 07:38:37;;;;;;;1.23;0.75;;;;;;;20.99;44.79;100667.59;20655951;28;20054;-68
2023/04/14 07:48:46;;;;;;;1.27;0.90;;;;;;;21.22;44.29;100670.59;20647135;28;20053;-67
2023/04/14 07:58:52;;;;;;;1.42;0.85;;;;;;;21.42;43.72;100676.56;20636605;28;20038;-67
2023/04/14 08:08:54;;;;;;;2.37;0.80;;;;;;;21.66;43.33;100664.13;20661778;28;20054;-67
2023/04/14 08:18:58;;;;;;;2.63;1.00;;;;;;;22.57;41.45;100668.69;20662071;28;20844;-67
2023/04/14 08:29:05;;;;;;;2.88;1.00;;;;;;;23.55;39.52;100668.47;20644429;28;20046;-66
2023/04/14 08:39:09;;;;;;;2.40;1.10;;;;;;;23.02;40.18;100672.63;20651921;28;20057;-66
2023/04/14 08:49:20;;;;;;;2.65;1.00;;;;;;;22.70;40.23;100665.41;20647275;28;20053;-66
2023/04/14 08:59:22;;;;;;;2.28;0.90;;;;;;;22.50;40.81;100659.53;20636056;28;20047;-66
2023/04/14 09:09:28;;;;;;;2.47;0.88;;;;;;;22.42;40.56;100655.78;20621097;28;20050;-65
2023/04/14 09:19:29;;;;;;;3.30;1.05;;;;;;;22.34;40.77;100657.69;20631552;28;20109;-67
2023/04/14 09:29:36;;;;;;;2.70;0.93;;;;;;;22.23;41.08;100645.34;20639477;28;20042;-67
2023/04/14 09:39:51;;;;;;;1.38;1.00;;;;;;;22.18;41.03;100648.53;20629366;28;20042;-68
2023/04/14 09:50:03;;;;;;;2.70;0.93;;;;;;;22.15;41.12;100647.03;20638222;28;20054;-68
2023/04/14 10:00:14;;;;;;;2.43;0.90;;;;;;;22.14;40.98;100647.19;20643824;28;20067;-66
2023/04/14 10:10:32;;;;;;;2.00;1.00;;;;;;;22.13;40.94;100654.50;20623036;28;20173;-66
2023/04/14 10:20:34;;;;;;;1.30;0.73;;;;;;;22.10;40.93;100649.41;20629960;28;20057;-66
2023/04/14 10:30:37;;;;;;;1.52;0.93;;;;;;;22.08;40.89;100648.72;20613830;28;20085;-66
2023/04/14 10:40:46;;;;;;;2.33;1.02;;;;;;;21.99;40.64;100636.19;20613762;28;20047;-67
2023/04/14 10:50:48;;;;;;;2.88;1.05;;;;;;;21.95;40.58;100624.00;20665550;28;20555;-66
2023/04/14 11:00:50;;;;;;;2.45;1.15;;;;;;;21.95;40.65;100607.72;20644659;28;20054;-66
2023/04/14 11:11:03;;;;;;;2.88;1.20;;;;;;;21.99;40.40;100599.09;20654067;28;20043;-67
2023/04/14 11:21:09;;;;;;;2.38;1.02;;;;;;;22.04;40.26;100598.56;20640155;28;20537;-67
2023/04/14 11:31:14;;;;;;;2.38;0.95;;;;;;;22.01;40.01;100598.91;20640202;28;20133;-67
2023/04/14 11:41:15;;;;;;;;;;;;;;;21.96;39.88;100602.16;20648816;28;20050;-67
2023/04/14 11:51:32;;;;;;;3.05;1.00;;;;;;;21.86;39.99;100594.19;20645476;28;19930;-66
2023/04/14 12:01:38;;;;;;;2.65;0.80;;;;;;;21.85;40.04;100592.50;20642994;28;20109;-67
2023/04/14 12:11:41;;;;;;;2.83;0.80;;;;;;;21.90;40.03;100594.72;20640647;28;20101;-68
2023/04/14 12:21:51;;;;;;;3.00;1.23;;;;;;;21.90;40.15;100601.97;20640186;28;20069;-68
2023/04/14 12:31:53;;;;;;;1.65;1.00;;;;;;;21.91;39.93;100580.16;20631902;28;20514;-68
2023/04/14 12:41:57;;;;;;;2.03;0.93;;;;;;;21.94;39.97;100579.81;20626472;28;20459;-67
2023/04/14 12:51:59;;;;;;;2.85;1.40;;;;;;;21.99;39.92;100574.72;20629318;28;20039;-68
2023/04/14 13:02:02;;;;;;;1.50;0.77;;;;;;;22.00;39.69;100564.69;20618233;28;20108;-67
2023/04/14 13:12:06;;;;;;;1.85;0.88;;;;;;;21.96;39.78;100561.50;20606477;28;20598;-68
2023/04/14 13:22:07;;;;;;;2.72;1.08;;;;;;;21.92;39.88;100556.59;20634490;28;20054;-68
2023/04/14 13:32:10;;;;;;;2.42;0.80;;;;;;;21.91;39.65;100541.34;20622963;28;20503;-68
2023/04/14 13:42:19;;;;;;;2.03;0.95;;;;;;;21.86;39.65;100540.00;20614630;28;20054;-68
2023/04/14 13:52:22;;;;;;;2.55;1.10;;;;;;;21.81;39.83;100526.13;20634494;28;20052;-69
2023/04/14 14:02:26;;;;;;;2.20;0.93;;;;;;;21.78;40.02;100525.59;20618926;28;20046;-69
2023/04/14 14:12:31;;;;;;;1.30;0.88;;;;;;;21.73;39.92;100515.31;20623912;28;20046;-68
2023/04/14 14:22:45;;;;;;;2.92;1.10;;;;;;;21.72;39.53;100517.16;20646345;28;20042;-68
2023/04/14 14:32:46;;;;;;;2.57;1.10;;;;;;;21.72;39.48;100513.59;20637834;28;20457;-68
2023/04/14 14:42:48;;;;;;;1.70;0.77;;;;;;;21.39;39.26;100445.88;20627952;28;20611;-69
2023/04/14 14:52:52;;;;;;;1.80;1.02;;;;;;;21.77;39.29;100497.69;20622187;28;20049;-68
2023/04/14 15:02:55;;;;;;;2.25;0.90;;;;;;;21.75;39.24;100490.72;20648864;28;20053;-69
2023/04/14 15:13:00;;;;;;;1.00;0.70;;;;;;;21.71;39.30;100492.94;20638208;28;20046;-67
2023/04/14 15:23:01;;;;;;;2.25;0.90;;;;;;;21.67;39.47;100497.84;20632644;28;20038;-69
2023/04/14 15:33:03;;;;;;;2.78;0.80;;;;;;;21.66;39.88;100495.34;20634521;28;20054;-66
2023/04/14 15:43:06;;;;;;;3.20;0.93;;;;;;;21.65;40.09;100499.03;20636067;28;20057;-66
2023/04/14 15:53:10;;;;;;;2.83;0.80;;;;;;;21.65;40.41;100490.91;20628705;28;20512;-65
2023/04/14 16:03:12;;;;;;;2.00;0.77;;;;;;;21.67;41.11;100497.03;20635171;28;20070;-65
2023/04/14 16:13:14;;;;;;;5.25;2.05;;;;;;;21.69;42.49;100489.56;20633044;28;20042;-66
2023/04/14 16:23:20;;;;;;;6.00;2.37;;;;;;;21.76;44.17;100496.00;20638291;28;20113;-67
2023/04/14 16:33:22;;;;;;;;;;;;;;;21.79;45.07;100501.06;20631772;28;20057;-68
2023/04/14 16:43:26;;;;;;;2.72;1.35;;;;;;;21.78;44.75;100495.81;20629787;28;19921;-68
2023/04/14 16:53:28;;;;;;;3.23;1.30;;;;;;;21.76;45.21;100500.53;20627161;28;20058;-68
2023/04/14 17:03:30;;;;;;;3.22;1.38;;;;;;;21.70;44.84;100502.94;20634358;28;20332;-66
2023/04/14 17:13:32;;;;;;;3.78;1.40;;;;;;;21.66;44.58;100495.34;20631399;28;20104;-67
2023/04/14 17:23:35;;;;;;;3.67;1.33;;;;;;;21.63;44.46;100499.19;20643900;28;20423;-66
2023/04/14 17:33:38;;;;;;;4.82;1.20;;;;;;;21.60;44.24;100507.66;20632111;28;20066;-66
2023/04/14 17:43:40;;;;;;;1.97;1.10;;;;;;;21.57;44.04;100516.13;20617096;28;20053;-66
2023/04/14 17:53:49;;;;;;;3.33;1.00;;;;;;;21.55;44.05;100521.69;20628786;28;20042;-66
2023/04/14 18:03:50;;;;;;;2.92;1.38;;;;;;;21.52;43.63;100524.75;20627126;28;20392;-66
2023/04/14 18:13:52;;;;;;;2.22;1.08;;;;;;;21.51;43.16;100541.19;20625631;28;20050;-66
2023/04/14 18:23:54;;;;;;;4.22;1.65;;;;;;;21.47;43.19;100548.78;20630326;28;20046;-66
2023/04/14 18:34:04;;;;;;;;;;;;;;;21.44;43.20;100562.66;20642015;28;20051;-65
2023/04/14 18:44:08;;;;;;;2.33;1.02;;;;;;;21.38;43.15;100563.34;20629012;28;20035;-65
2023/04/14 18:54:11;;;;;;;3.40;0.93;;;;;;;21.32;42.79;100564.00;20658459;28;20476;-65
2023/04/14 19:04:13;;;;;;;2.65;1.00;;;;;;;21.25;42.53;100574.66;20665513;28;20057;-65
2023/04/14 19:14:15;;;;;;;3.28;0.98;;;;;;;21.20;42.56;100577.03;20653657;28;20050;-66
2023/04/14 19:24:16;;;;;;;2.65;1.13;;;;;;;21.15;42.29;100585.63;20647511;28;20097;-67
2023/04/14 19:34:23;;;;;;;1.87;0.90;;;;;;;21.11;42.20;100600.50;20583981;28;20050;-67
2023/04/14 19:44:24;;;;;;;1.47;0.80;;;;;;;21.06;42.16;100611.84;20662843;28;20305;-67
2023/04/14 19:54:26;;;;;;;1.30;0.80;;;;;;;20.91;41.96;100603.50;20655232;28;20410;-67
2023/04/14 20:04:33;;;;;;;2.45;0.90;;;;;;;20.96;41.89;100605.69;20662308;28;20051;-67
2023/04/14 20:14:34;;;;;;;2.88;1.00;;;;;;;20.91;41.83;100613.47;20663584;28;20042;-67
2023/04/14 20:24:38;;;;;;;1.25;0.90;;;;;;;20.89;41.73;100608.22;20662502;28;20100;-67
2023/04/14 20:34:40;;;;;;;1.30;0.80;;;;;;;20.83;41.66;100608.88;20661093;28;20508;-67
2023/04/14 20:44:44;;;;;;;1.38;1.00;;;;;;;20.79;41.59;100612.94;20642492;28;20746;-67
2023/04/14 20:54:45;;;;;;;0.93;0.70;;;;;;;20.76;41.56;100610.50;20657660;28;20069;-67
2023/04/14 21:04:47;;;;;;;1.45;0.70;;;;;;;20.72;41.66;100616.22;20656621;28;20133;-67
2023/04/14 21:14:49;;;;;;;2.15;0.80;;;;;;;20.68;41.65;100622.16;20657501;28;20108;-67
2023/04/14 21:25:10;;;;;;;1.17;0.80;;;;;;;20.66;41.77;100635.81;20658135;28;20450;-67
2023/04/14 21:35:12;;;;;;;1.17;0.75;;;;;;;20.63;41.79;100638.84;20656613;28;20093;-67
2023/04/14 21:45:16;;;;;;;1.00;0.85;;;;;;;20.60;41.69;100660.81;20656112;28;20548;-67
2023/04/14 21:55:19;;;;;;;0.98;0.65;;;;;;;20.59;41.71;100651.00;20654270;28;20050;-67
2023/04/14 22:05:21;;;;;;;1.17;0.82;;;;;;;20.56;41.86;100651.31;20655192;28;20050;-67
2023/04/14 22:15:23;;;;;;;1.67;0.90;;;;;;;20.55;41.76;100655.03;20653552;28;20057;-67
2023/04/14 22:25:24;;;;;;;1.88;0.80;;;;;;;20.54;41.75;100670.38;20657361;28;20046;-67
2023/04/14 22:35:28;;;;;;;1.35;0.85;;;;;;;20.51;41.57;100668.00;20668841;28;20062;-67
2023/04/14 22:45:30;;;;;;;1.10;0.77;;;;;;;20.49;41.77;100677.31;20669138;28;20047;-67
2023/04/14 22:55:32;;;;;;;1.48;0.80;;;;;;;20.49;41.72;100682.72;20667118;28;20085;-67
2023/04/14 23:05:34;;;;;;;1.90;0.80;;;;;;;20.46;41.69;100685.75;20668269;28;20140;-67
2023/04/14 23:15:35;;;;;;;1.20;0.98;;;;;;;20.44;41.76;100691.28;20667204;28;20108;-67
2023/04/14 23:25:37;;;;;;;2.00;0.90;;;;;;;20.40;41.57;100696.19;20666674;28;20078;-67
2023/04/14 23:35:39;;;;;;;1.73;0.70;;;;;;;20.39;41.50;100705.31;20665586;28;20502;-67
2023/04/14 23:45:42;;;;;;;1.40;0.80;;;;;;;20.35;41.52;100693.09;20665034;28;20051;-67
2023/04/14 23:55:45;;;;;;;1.27;0.80;;;;;;;20.30;41.56;100692.69;20664605;28;20414;-67
